METAR Data
IDs: Format: Raw Decoded Include TAF

Data at: 2009 UTC 18 Apr 2021

K28J 181955Z AUTO 20004KT 10SM BKN042 BKN049 23/17 A2986 RMK AO2
K28J 181935Z AUTO 28004KT 10SM SCT041 BKN047 BKN055 23/17 A2987 RMK AO2
K28J 181915Z AUTO VRB03KT 10SM BKN046 BKN055 OVC065 22/18 A2987 RMK AO2
K28J 181855Z AUTO 25005KT 10SM BKN048 BKN060 OVC070 22/17 A2989 RMK AO2
K28J 181835Z AUTO 21004KT 10SM SCT055 OVC070 21/17 A2990 RMK AO2
K28J 181815Z AUTO 21004KT 10SM BKN055 BKN080 21/17 A2990 RMK AO2
K28J 181755Z AUTO 00000KT 10SM BKN060 BKN070 OVC080 20/17 A2990 RMK AO2 P0001
K28J 181735Z AUTO 20003KT 10SM BKN060 BKN070 20/17 A2991 RMK AO2
K28J 181715Z AUTO 21003KT 10SM BKN060 BKN070 19/17 A2991 RMK AO2
K28J 181655Z AUTO 19005G11KT 10SM FEW006 SCT060 BKN070 18/17 A2991 RMK AO2
K28J 181635Z AUTO 19007KT 10SM FEW006 FEW049 FEW075 18/17 A2992 RMK AO2
K28J 181615Z AUTO 17006KT 6SM -RA BR FEW050 SCT075 BKN090 17/17 A2993 RMK AO2
K28J 181555Z AUTO 18007KT 10SM FEW050 BKN070 BKN080 18/17 A2996 RMK AO2
K28J 181515Z AUTO 00000KT 1 3/4SM -RA BR SCT028 BKN055 OVC070 17/17 A2998 RMK AO2
K28J 181455Z AUTO 32004KT 10SM FEW022 SCT032 BKN055 17/17 A2999 RMK AO2 P0001
K28J 181435Z AUTO 21006KT 1SM -RA BR SCT005 BKN023 OVC031 17/17 A3000 RMK AO2 LTG DSNT E AND SE
K28J 181355Z AUTO 34005KT 2SM -TSRA BR BKN004 BKN026 OVC031 17/17 A2997 RMK AO2 LTG DSNT ALQDS
K28J 181335Z AUTO 00000KT 3SM -RA BR SCT005 SCT030 OVC050 17/17 A2994 RMK AO2 LTG DSNT W
K28J 181315Z AUTO 00000KT 8SM FEW031 FEW039 BKN050 17/17 A2995 RMK AO2
K28J 181255Z AUTO 02007KT 4SM -RA BR FEW034 SCT055 BKN065 17/17 A2990 RMK AO2 P0001
K28J 181235Z AUTO 00000KT 9SM SCT065 SCT080 SCT120 17/17 A2993 RMK AO2
K28J 181215Z AUTO 00000KT 8SM FEW046 FEW060 FEW100 17/17 A2993 RMK AO2
K28J 181155Z AUTO 00000KT 4SM -RA BR SCT036 BKN055 BKN080 17/16 A2994 RMK AO2
K28J 181135Z AUTO 00000KT 2 1/2SM -RA BR SCT003 BKN033 OVC055 17/16 A2995 RMK AO2
K28J 181115Z AUTO 00000KT 8SM UP BKN003 OVC060 17/16 A2993 RMK AO2
K28J 181055Z AUTO 00000KT 8SM BKN004 OVC060 17/16 A2993 RMK AO2
K28J 181035Z AUTO 00000KT 9SM OVC004 17/16 A2992 RMK AO2
K28J 181015Z AUTO 00000KT 9SM BKN004 OVC060 17/16 A2991 RMK AO2
K28J 180955Z AUTO 24003KT 10SM FEW003 BKN060 OVC085 17/16 A2990 RMK AO2 P0001
K28J 180935Z AUTO 17006KT 9SM BKN003 BKN060 OVC080 17/16 A2987 RMK AO2
K28J 180915Z AUTO VRB03KT 7SM OVC003 17/16 A2989 RMK AO2
K28J 180855Z AUTO 20003KT 5SM BR OVC003 17/16 A2988 RMK AO2
K28J 180835Z AUTO 00000KT 9SM BKN003 OVC070 17/16 A2989 RMK AO2
K28J 180815Z AUTO 24003KT 9SM SCT070 17/16 A2989 RMK AO2
K28J 180755Z AUTO 16004KT 8SM CLR 17/16 A2986 RMK AO2
K28J 180735Z AUTO 00000KT 9SM SCT003 BKN048 BKN070 17/16 A2989 RMK AO2
K28J 180715Z AUTO 27005KT 9SM UP BKN004 BKN049 OVC070 17/16 A2993 RMK AO2
K28J 180655Z AUTO 29007KT 9SM BKN004 OVC070 17/17 A2992 RMK AO2 P0001
K28J 180635Z AUTO 00000KT 9SM FEW004 OVC070 17/17 A2990 RMK AO2
K28J 180615Z AUTO 00000KT 10SM FEW004 OVC070 17/17 A2990 RMK AO2
K28J 180555Z AUTO 00000KT 10SM OVC070 17/16 A2989 RMK AO2
K28J 180535Z AUTO 18004KT 10SM OVC070 17/17 A2990 RMK AO2
K28J 180515Z AUTO 00000KT 10SM FEW004 OVC075 17/16 A2991 RMK AO2
K28J 180455Z AUTO 17004KT 9SM BKN004 BKN045 OVC080 17/17 A2990 RMK AO2 P0001
K28J 180435Z AUTO 00000KT 10SM BKN004 BKN044 OVC075 17/17 A2991 RMK AO2
K28J 180415Z AUTO 00000KT 9SM FEW044 BKN070 OVC080 17/17 A2991 RMK AO2
K28J 180355Z AUTO 16006KT 10SM FEW044 OVC070 17/17 A2991 RMK AO2
K28J 180315Z AUTO 21007KT 8SM FEW004 OVC065 17/17 A2995 RMK AO2
K28J 180255Z AUTO 16006KT 6SM BR FEW004 BKN050 OVC065 17/17 A2991 RMK AO2 LTG DSNT SE P0001
K28J 180235Z AUTO 13003KT 9SM SCT041 BKN049 OVC055 17/17 A2991 RMK AO2 LTG DSNT NE AND SW
K28J 180215Z AUTO VRB04G10KT 9SM VCTS FEW005 FEW020 OVC039 17/17 A2991 RMK AO2 LTG DSNT SE-SW
K28J 180155Z AUTO 10009KT 2 1/2SM VCTS RA BR SCT004 BKN013 OVC050 17/17 A2990 RMK AO2 LTG DSNT E-SW P0001
K28J 180135Z AUTO 06006KT 1/2SM -TSRA BR OVC004 18/17 A2990 RMK AO2 LTG DSNT ALQDS
K28J 180115Z AUTO 10005KT 1 1/2SM -TSRA BR BKN005 OVC023 18/17 A2989 RMK AO2 LTG DSNT ALQDS
K28J 180055Z AUTO 10007KT 3SM -TSRA BR FEW006 BKN022 OVC027 18/18 A2987 RMK AO2 LTG DSNT ALQDS P0001
K28J 180035Z AUTO 09008KT 1 3/4SM VCTS RA BR SCT004 BKN023 OVC029 19/19 A2986 RMK AO2 LTG DSNT ALQDS
K28J 180015Z AUTO 00000KT 1SM -TSRA BR SCT004 SCT017 OVC032 20/19 A2985 RMK AO2 LTG DSNT ALQDS
K28J 172355Z AUTO 00000KT 3SM -TSRA BR FEW005 SCT031 BKN065 20/19 A2985 RMK AO2 LTG DSNT ALQDS P0002
K28J 172335Z AUTO 06005KT 10SM VCTS 20/19 A2983 RMK AO2 LTG DSNT SE-W
K28J 172255Z AUTO 04005KT 9SM BKN029 OVC034 22/18 A2984 RMK AO2
K28J 172235Z AUTO 03004KT 10SM OVC029 23/19 A2984 RMK AO2
K28J 172215Z AUTO 00000KT 10SM OVC031 23/18 A2984 RMK AO2
K28J 172155Z AUTO 00000KT 10SM OVC032 23/18 A2982 RMK AO2
K28J 172135Z AUTO 33005KT 10SM SCT029 BKN034 BKN080 23/18 A2982 RMK AO2
K28J 172115Z AUTO 00000KT 10SM SCT080 SCT120 24/18 A2981 RMK AO2
K28J 172055Z AUTO 03003KT 10SM FEW025 BKN080 BKN120 24/18 A2981 RMK AO2
K28J 172035Z AUTO 00000KT 10SM FEW023 FEW031 SCT075 24/18 A2981 RMK AO2
K28J 172015Z AUTO VRB03KT 10SM FEW021 SCT033 SCT110 24/18 A2982 RMK AO2
K28J 171955Z AUTO VRB06KT 10SM FEW021 SCT050 SCT055 24/18 A2983 RMK AO2
K28J 171935Z AUTO VRB06KT 10SM SCT055 BKN065 23/18 A2984 RMK AO2
K28J 171915Z AUTO VRB05KT 10SM SCT019 BKN044 OVC060 23/18 A2985 RMK AO2
K28J 171855Z AUTO 10SM BKN017 BKN021 OVC046 23/18 A2986 RMK AO2
K28J 171835Z AUTO 04005KT 10SM BKN016 BKN022 BKN048 23/19 A2986 RMK AO2
K28J 171815Z AUTO 01005KT 10SM BKN014 BKN020 BKN025 22/18 A2987 RMK AO2
K28J 171755Z AUTO VRB04KT 10SM SCT011 SCT016 BKN023 22/19 A2987 RMK AO2
K28J 171735Z AUTO 36006KT 10SM SCT012 BKN016 OVC023 21/18 A2987 RMK AO2
K28J 171715Z AUTO 36005KT 10SM SCT010 BKN014 OVC050 22/19 A2987 RMK AO2
K28J 171655Z AUTO 36006KT 10SM OVC009 21/19 A2987 RMK AO2 P0001
K28J 171635Z AUTO 00000KT 10SM OVC011 21/18 A2987 RMK AO2
K28J 171615Z AUTO 00000KT 10SM OVC007 20/18 A2989 RMK AO2
K28J 171555Z AUTO 00000KT 10SM OVC007 20/18 A2989 RMK AO2
K28J 171535Z AUTO 00000KT 10SM OVC006 19/17 A2990 RMK AO2
K28J 171515Z AUTO 00000KT 10SM OVC006 18/17 A2990 RMK AO2
K28J 171455Z AUTO 14005KT 10SM BKN005 BKN060 18/17 A2989 RMK AO2 P0001
K28J 171435Z AUTO 15007KT 9SM OVC005 17/16 A2989 RMK AO2
K28J 171415Z AUTO 13004KT 8SM OVC005 17/16 A2990 RMK AO2
K28J 171355Z AUTO 01004KT 6SM -RA BR OVC005 17/16 A2992 RMK AO2 P0001
K28J 171335Z AUTO 14006KT 10SM OVC005 17/16 A2988 RMK AO2
K28J 171315Z AUTO 14005KT 9SM OVC005 16/16 A2989 RMK AO2 LTG DSNT SE AND S
K28J 171255Z AUTO 11006KT 10SM OVC006 16/16 A2989 RMK AO2 LTG DSNT SE AND S P0002
K28J 171235Z AUTO 15004KT 10SM OVC006 16/16 A2989 RMK AO2
K28J 171215Z AUTO 10005KT 10SM BKN006 BKN010 OVC015 16/15 A2988 RMK AO2
K28J 171155Z AUTO 10006KT 4SM UP BR BKN006 BKN009 OVC015 15/15 A2985 RMK AO2 LTG DSNT SE P0003
K28J 171135Z AUTO 03005KT 8SM UP OVC006 15/15 A2989 RMK AO2 LTG DSNT SE-SW
K28J 171115Z AUTO 00000KT 4SM -RA BR BKN005 OVC011 15/15 A2987 RMK AO2 LTG DSNT SW
K28J 171055Z AUTO 03005KT 2SM -RA BR SCT005 OVC012 15/15 A2986 RMK AO2 LTG DSNT SW P0001
K28J 171035Z AUTO 05006KT 7SM UP FEW006 OVC012 15/15 A2984 RMK AO2 LTG DSNT SE-SW
K28J 171015Z AUTO 03004KT 7SM UP BKN005 OVC011 15/15 A2985 RMK AO2 LTG DSNT SE-W
K28J 170935Z AUTO 03005KT 9SM FEW006 BKN012 OVC050 15/15 A2983 RMK AO2 LTG DSNT SE AND S
K28J 170915Z AUTO 05003KT 7SM VCTS FEW006 BKN012 OVC055 16/15 A2983 RMK AO2 LTG DSNT SE
K28J 170855Z AUTO 00000KT 4SM VCTS RA BR OVC012 16/15 A2984 RMK AO2 LTG DSNT SW P0001
K28J 170835Z AUTO 04003KT 9SM OVC013 16/15 A2983 RMK AO2
K28J 170815Z AUTO 12004KT 10SM VCTS OVC013 15/15 A2983 RMK AO2 LTG DSNT S AND W